logo
Search for airport 
image banner adimage banner adimage banner ad
image banner ad

FABT - Bethesda Road

Located in Bethesda, South Africa

ICAO - FABT, IATA -

Data provided by Airmate  

General information

Coordinates: S31°52'23" E24°47'49"
Elevation is 4629 feet MSL.
 
View others Airports in Eastern Cape

Operational data

Special qualification required
Current time UTC:
Current local time:
Weather at : - ( 0 km )
METAR: KMJX 181105Z AUTO 03012KT 2 1/2SM BR OVC003 09/09 A2996 RMK AO2 VIS 1 3/4V3
View NOTAMs / SUP AIP / TFR affecting this airport [VIEW]
Communications frequencies: [VIEW]

Runways:

RWY identifierQFULength (ft)Width (ft)SurfaceLDA (ft)
01330°426520SAND
19150°426520SAND

Airport contact information

Address: Bethesda South Africa

Satellite view of FABT